Buxhansa — A8TQ5 — position and weather

sailwx.info

Track history (hours):
 
Tides and Currents Weather Stations Pressure Air Temp Water Temp Dewpoint Dewpoint Depression Visibility Wind Speed Wind Dir Waves Ship Positions

Buxhansa

Last reported at 2015-Aug-04 02:11 UTC. Time now 2015-Sep-04 14:37 UTC.
Position N 03°09' E 100°39'.
Warning: this ship's position is 31 days out of date.

Length 208 m; draft 10.4 m.

Type: Ship (hazmat cat A). MMSI: 636091849.

Date/timePositionNaut miles runAvg speedWind from/ knotsBaromVisibWave heightAir tempDewpointWater temp
2015-Aug-04 02:11N 03°09' E 100°39'2213.4
2015-Aug-04 00:33N 02°56' E 100°56'2110.2
2015-Aug-03 22:33N 02°44' E 101°13'19 9.4
2015-Aug-03 20:33N 02°35' E 101°29'1111.3
2015-Aug-03 19:33N 02°28' E 101°38'14510.3
2015-Aug-03 05:33N 01°15' E 103°43'3 3.3
2015-Aug-03 04:31N 01°17' E 103°46'0 0.0
2015-Aug-03 03:24N 01°17' E 103°46'0 0.0
2015-Aug-03 02:30N 01°17' E 103°46'0 0.0
2015-Aug-03 01:29N 01°17' E 103°46'0 0.0
2015-Aug-03 00:29N 01°17' E 103°46'0 0.0
2015-Aug-02 23:31N 01°17' E 103°46'0 0.0
2015-Aug-02 21:31N 01°17' E 103°46'0 0.0
2015-Aug-02 20:33N 01°17' E 103°46'0 0.0
2015-Aug-02 19:30N 01°17' E 103°46'0 0.0
2015-Aug-02 18:26N 01°17' E 103°46'0 0.0
2015-Aug-02 17:32N 01°17' E 103°46'0 0.0
2015-Aug-02 16:25N 01°17' E 103°46'0 0.0
2015-Aug-02 15:26N 01°17' E 103°46'1 1.6
2015-Aug-02 14:33N 01°17' E 103°45'7 7.0
2015-Aug-02 13:32N 01°12' E 103°51'  
2015-Jul-28 13:32N 22°20' E 113°48'1311.2
2015-Jul-28 12:22N 22°07' E 113°48'17 3.3
2015-Jul-28 07:21N 22°23' E 113°54'5 5.8
2015-Jul-28 06:33N 22°28' E 113°54'0 0.3
2015-Jul-28 05:33N 22°28' E 113°54'0 0.0
2015-Jul-28 04:23N 22°28' E 113°54'0 0.0
2015-Jul-28 02:10N 22°28' E 113°54'0 0.0
2015-Jul-28 01:25N 22°28' E 113°54'0 0.0
2015-Jul-27 23:15N 22°28' E 113°54'3 4.4
2015-Jul-27 22:33N 22°25' E 113°53'1110.5
2015-Jul-27 21:28N 22°20' E 114°05'16 8.0
2015-Jul-27 19:27N 22°09' E 114°17'7 7.7
2015-Jul-27 18:31N 22°12' E 114°24'5 0.2
2015-Jul-26 22:33N 22°17' E 114°27'18 8.9
2015-Jul-26 20:29N 22°08' E 114°09'19 8.6
2015-Jul-26 18:14N 22°06' E 113°48'6 8.7
2015-Jul-26 17:33N 22°12' E 113°48'3014.0
2015-Jul-26 15:24N 22°42' E 113°41'1011.6
2015-Jul-26 14:33N 22°50' E 113°35'1010.0
2015-Jul-26 13:32N 22°59' E 113°31'3 3.2
2015-Jul-26 12:30N 23°03' E 113°31'0 0.0
2015-Jul-26 10:11N 23°03' E 113°31'0 0.0
2015-Jul-26 09:04N 23°03' E 113°31'0 0.0
2015-Jul-26 08:16N 23°03' E 113°31'0 0.0
2015-Jul-26 07:22N 23°03' E 113°31'0 0.0
2015-Jul-26 05:33N 23°03' E 113°31'0 0.0
2015-Jul-26 04:32N 23°03' E 113°31'1 0.6
2015-Jul-26 03:33N 23°02' E 113°31'9 9.0
2015-Jul-26 02:33N 22°54' E 113°34'1110.5
2015-Jul-26 01:30N 22°44' E 113°40'1813.2
2015-Jul-26 00:10N 22°27' E 113°45'914.4
2015-Jul-25 23:33N 22°19' E 113°48'1211.5
2015-Jul-25 22:33N 22°07' E 113°48'  
Track history (hours):
 
Tides and Currents Weather Stations Pressure Air Temp Water Temp Dewpoint Dewpoint Depression Visibility Wind Speed Wind Dir Waves Ship Positions

Buxhansa

Last reported at 2015-Aug-04 02:11 UTC. Time now 2015-Sep-04 14:37 UTC.
Position N 03°09' E 100°39'.
Warning: this ship's position is 31 days out of date.

Length 208 m; draft 10.4 m.

Type: Ship (hazmat cat A). MMSI: 636091849.

Date/timePositionNaut miles runAvg speedWind from/ knotsBaromVisibWave heightAir tempDewpointWater temp
2015-Aug-04 02:11N 03°09' E 100°39'2213.4
2015-Aug-04 00:33N 02°56' E 100°56'2110.2
2015-Aug-03 22:33N 02°44' E 101°13'19 9.4
2015-Aug-03 20:33N 02°35' E 101°29'1111.3
2015-Aug-03 19:33N 02°28' E 101°38'14510.3
2015-Aug-03 05:33N 01°15' E 103°43'3 3.3
2015-Aug-03 04:31N 01°17' E 103°46'0 0.0
2015-Aug-03 03:24N 01°17' E 103°46'0 0.0
2015-Aug-03 02:30N 01°17' E 103°46'0 0.0
2015-Aug-03 01:29N 01°17' E 103°46'0 0.0
2015-Aug-03 00:29N 01°17' E 103°46'0 0.0
2015-Aug-02 23:31N 01°17' E 103°46'0 0.0
2015-Aug-02 21:31N 01°17' E 103°46'0 0.0
2015-Aug-02 20:33N 01°17' E 103°46'0 0.0
2015-Aug-02 19:30N 01°17' E 103°46'0 0.0
2015-Aug-02 18:26N 01°17' E 103°46'0 0.0
2015-Aug-02 17:32N 01°17' E 103°46'0 0.0
2015-Aug-02 16:25N 01°17' E 103°46'0 0.0
2015-Aug-02 15:26N 01°17' E 103°46'1 1.6
2015-Aug-02 14:33N 01°17' E 103°45'7 7.0
2015-Aug-02 13:32N 01°12' E 103°51'  
2015-Jul-28 13:32N 22°20' E 113°48'1311.2
2015-Jul-28 12:22N 22°07' E 113°48'17 3.3
2015-Jul-28 07:21N 22°23' E 113°54'5 5.8
2015-Jul-28 06:33N 22°28' E 113°54'0 0.3
2015-Jul-28 05:33N 22°28' E 113°54'0 0.0
2015-Jul-28 04:23N 22°28' E 113°54'0 0.0
2015-Jul-28 02:10N 22°28' E 113°54'0 0.0
2015-Jul-28 01:25N 22°28' E 113°54'0 0.0
2015-Jul-27 23:15N 22°28' E 113°54'3 4.4
2015-Jul-27 22:33N 22°25' E 113°53'1110.5
2015-Jul-27 21:28N 22°20' E 114°05'16 8.0
2015-Jul-27 19:27N 22°09' E 114°17'7 7.7
2015-Jul-27 18:31N 22°12' E 114°24'5 0.2
2015-Jul-26 22:33N 22°17' E 114°27'18 8.9
2015-Jul-26 20:29N 22°08' E 114°09'19 8.6
2015-Jul-26 18:14N 22°06' E 113°48'6 8.7
2015-Jul-26 17:33N 22°12' E 113°48'3014.0
2015-Jul-26 15:24N 22°42' E 113°41'1011.6
2015-Jul-26 14:33N 22°50' E 113°35'1010.0
2015-Jul-26 13:32N 22°59' E 113°31'3 3.2
2015-Jul-26 12:30N 23°03' E 113°31'0 0.0
2015-Jul-26 10:11N 23°03' E 113°31'0 0.0
2015-Jul-26 09:04N 23°03' E 113°31'0 0.0
2015-Jul-26 08:16N 23°03' E 113°31'0 0.0
2015-Jul-26 07:22N 23°03' E 113°31'0 0.0
2015-Jul-26 05:33N 23°03' E 113°31'0 0.0
2015-Jul-26 04:32N 23°03' E 113°31'1 0.6
2015-Jul-26 03:33N 23°02' E 113°31'9 9.0
2015-Jul-26 02:33N 22°54' E 113°34'1110.5
2015-Jul-26 01:30N 22°44' E 113°40'1813.2
2015-Jul-26 00:10N 22°27' E 113°45'914.4
2015-Jul-25 23:33N 22°19' E 113°48'1211.5
2015-Jul-25 22:33N 22°07' E 113°48'  

Dump ship's entire track history